sensor_id;sensor_type;location;lat;lon;timestamp;P1;durP1;ratioP1;P2;durP2;ratioP2
16531;SDS011;66872;63.142;14.482;2023-07-24T00:01:09;1.03;;;1.00;;
16531;SDS011;66872;63.142;14.482;2023-07-24T00:03:35;0.80;;;0.80;;
16531;SDS011;66872;63.142;14.482;2023-07-24T00:06:01;0.67;;;0.67;;
16531;SDS011;66872;63.142;14.482;2023-07-24T00:08:26;0.90;;;0.90;;
16531;SDS011;66872;63.142;14.482;2023-07-24T00:10:52;0.90;;;0.90;;
16531;SDS011;66872;63.142;14.482;2023-07-24T00:13:18;0.73;;;0.73;;
16531;SDS011;66872;63.142;14.482;2023-07-24T00:15:44;1.07;;;1.00;;
16531;SDS011;66872;63.142;14.482;2023-07-24T00:18:09;0.63;;;0.63;;
16531;SDS011;66872;63.142;14.482;2023-07-24T00:20:35;0.80;;;0.80;;
16531;SDS011;66872;63.142;14.482;2023-07-24T00:23:01;0.63;;;0.63;;
16531;SDS011;66872;63.142;14.482;2023-07-24T00:25:26;1.00;;;0.90;;
16531;SDS011;66872;63.142;14.482;2023-07-24T00:27:52;0.80;;;0.80;;
16531;SDS011;66872;63.142;14.482;2023-07-24T00:30:18;0.80;;;0.80;;
16531;SDS011;66872;63.142;14.482;2023-07-24T00:32:43;0.77;;;0.77;;
16531;SDS011;66872;63.142;14.482;2023-07-24T00:35:09;0.70;;;0.70;;
16531;SDS011;66872;63.142;14.482;2023-07-24T00:37:35;0.83;;;0.83;;
16531;SDS011;66872;63.142;14.482;2023-07-24T00:40:01;1.03;;;0.90;;
16531;SDS011;66872;63.142;14.482;2023-07-24T00:42:27;0.87;;;0.87;;
16531;SDS011;66872;63.142;14.482;2023-07-24T00:44:53;0.93;;;0.93;;
16531;SDS011;66872;63.142;14.482;2023-07-24T00:47:18;1.10;;;0.90;;
16531;SDS011;66872;63.142;14.482;2023-07-24T00:49:44;1.17;;;0.90;;
16531;SDS011;66872;63.142;14.482;2023-07-24T00:52:10;0.93;;;0.93;;
16531;SDS011;66872;63.142;14.482;2023-07-24T00:54:37;1.10;;;1.00;;
16531;SDS011;66872;63.142;14.482;2023-07-24T00:57:03;0.80;;;0.80;;
16531;SDS011;66872;63.142;14.482;2023-07-24T00:59:30;1.00;;;1.00;;
16531;SDS011;66872;63.142;14.482;2023-07-24T01:01:56;0.83;;;0.83;;
16531;SDS011;66872;63.142;14.482;2023-07-24T01:04:22;0.70;;;0.70;;
16531;SDS011;66872;63.142;14.482;2023-07-24T01:06:48;0.80;;;0.80;;
16531;SDS011;66872;63.142;14.482;2023-07-24T01:09:14;0.70;;;0.70;;
16531;SDS011;66872;63.142;14.482;2023-07-24T01:11:56;0.93;;;0.90;;
16531;SDS011;66872;63.142;14.482;2023-07-24T01:14:33;1.70;;;0.90;;
16531;SDS011;66872;63.142;14.482;2023-07-24T01:17:07;0.90;;;0.90;;
16531;SDS011;66872;63.142;14.482;2023-07-24T01:19:37;0.80;;;0.80;;
16531;SDS011;66872;63.142;14.482;2023-07-24T01:25:04;0.90;;;0.90;;
16531;SDS011;66872;63.142;14.482;2023-07-24T01:27:42;2.03;;;1.00;;
16531;SDS011;66872;63.142;14.482;2023-07-24T01:30:09;0.80;;;0.80;;
16531;SDS011;66872;63.142;14.482;2023-07-24T01:32:36;0.80;;;0.80;;
16531;SDS011;66872;63.142;14.482;2023-07-24T01:35:02;1.00;;;1.00;;
16531;SDS011;66872;63.142;14.482;2023-07-24T01:37:29;1.07;;;1.00;;
16531;SDS011;66872;63.142;14.482;2023-07-24T01:39:56;0.80;;;0.80;;
16531;SDS011;66872;63.142;14.482;2023-07-24T01:42:23;1.00;;;1.00;;
16531;SDS011;66872;63.142;14.482;2023-07-24T01:44:53;0.80;;;0.80;;
16531;SDS011;66872;63.142;14.482;2023-07-24T01:47:19;0.97;;;0.97;;
16531;SDS011;66872;63.142;14.482;2023-07-24T01:49:46;0.87;;;0.87;;
16531;SDS011;66872;63.142;14.482;2023-07-24T01:52:11;1.13;;;1.03;;
16531;SDS011;66872;63.142;14.482;2023-07-24T01:54:37;1.10;;;1.00;;
16531;SDS011;66872;63.142;14.482;2023-07-24T01:57:03;0.80;;;0.80;;
16531;SDS011;66872;63.142;14.482;2023-07-24T01:59:29;0.80;;;0.80;;
16531;SDS011;66872;63.142;14.482;2023-07-24T02:01:54;0.90;;;0.90;;
16531;SDS011;66872;63.142;14.482;2023-07-24T02:04:20;0.70;;;0.70;;
16531;SDS011;66872;63.142;14.482;2023-07-24T02:06:50;0.93;;;0.90;;
16531;SDS011;66872;63.142;14.482;2023-07-24T02:09:19;0.87;;;0.87;;
16531;SDS011;66872;63.142;14.482;2023-07-24T02:11:45;1.43;;;1.00;;
16531;SDS011;66872;63.142;14.482;2023-07-24T02:14:11;0.80;;;0.80;;
16531;SDS011;66872;63.142;14.482;2023-07-24T02:16:38;0.90;;;0.90;;
16531;SDS011;66872;63.142;14.482;2023-07-24T02:19:04;0.90;;;0.90;;
16531;SDS011;66872;63.142;14.482;2023-07-24T02:21:31;0.80;;;0.80;;
16531;SDS011;66872;63.142;14.482;2023-07-24T02:23:56;0.90;;;0.90;;
16531;SDS011;66872;63.142;14.482;2023-07-24T02:26:22;0.90;;;0.90;;
16531;SDS011;66872;63.142;14.482;2023-07-24T02:28:48;0.83;;;0.83;;
16531;SDS011;66872;63.142;14.482;2023-07-24T02:31:13;1.03;;;0.97;;
16531;SDS011;66872;63.142;14.482;2023-07-24T02:33:39;0.90;;;0.90;;
16531;SDS011;66872;63.142;14.482;2023-07-24T02:36:05;0.60;;;0.60;;
16531;SDS011;66872;63.142;14.482;2023-07-24T02:38:30;0.70;;;0.70;;
16531;SDS011;66872;63.142;14.482;2023-07-24T02:40:56;0.97;;;0.97;;
16531;SDS011;66872;63.142;14.482;2023-07-24T02:43:22;0.77;;;0.77;;
16531;SDS011;66872;63.142;14.482;2023-07-24T02:45:48;1.10;;;1.00;;
16531;SDS011;66872;63.142;14.482;2023-07-24T02:48:13;1.03;;;1.03;;
16531;SDS011;66872;63.142;14.482;2023-07-24T02:50:39;1.00;;;1.00;;
16531;SDS011;66872;63.142;14.482;2023-07-24T02:53:05;0.80;;;0.80;;
16531;SDS011;66872;63.142;14.482;2023-07-24T02:55:30;1.10;;;1.00;;
16531;SDS011;66872;63.142;14.482;2023-07-24T02:57:56;0.93;;;0.90;;
16531;SDS011;66872;63.142;14.482;2023-07-24T03:00:22;0.80;;;0.80;;
16531;SDS011;66872;63.142;14.482;2023-07-24T03:02:48;0.97;;;0.97;;
16531;SDS011;66872;63.142;14.482;2023-07-24T03:05:13;0.90;;;0.90;;
16531;SDS011;66872;63.142;14.482;2023-07-24T03:07:39;0.90;;;0.90;;
16531;SDS011;66872;63.142;14.482;2023-07-24T03:10:05;0.90;;;0.90;;
16531;SDS011;66872;63.142;14.482;2023-07-24T03:12:30;0.70;;;0.70;;
16531;SDS011;66872;63.142;14.482;2023-07-24T03:14:56;0.97;;;0.93;;
16531;SDS011;66872;63.142;14.482;2023-07-24T03:17:22;1.30;;;1.00;;
16531;SDS011;66872;63.142;14.482;2023-07-24T03:19:48;1.23;;;1.13;;
16531;SDS011;66872;63.142;14.482;2023-07-24T03:22:14;0.90;;;0.90;;
16531;SDS011;66872;63.142;14.482;2023-07-24T03:24:40;0.83;;;0.83;;
16531;SDS011;66872;63.142;14.482;2023-07-24T03:27:06;1.03;;;1.00;;
16531;SDS011;66872;63.142;14.482;2023-07-24T03:29:31;0.80;;;0.80;;
16531;SDS011;66872;63.142;14.482;2023-07-24T03:31:57;0.87;;;0.87;;
16531;SDS011;66872;63.142;14.482;2023-07-24T03:34:23;0.87;;;0.87;;
16531;SDS011;66872;63.142;14.482;2023-07-24T03:36:49;0.90;;;0.90;;
16531;SDS011;66872;63.142;14.482;2023-07-24T03:39:14;1.10;;;1.00;;
16531;SDS011;66872;63.142;14.482;2023-07-24T03:41:41;1.10;;;1.00;;
16531;SDS011;66872;63.142;14.482;2023-07-24T03:44:07;1.07;;;1.07;;
16531;SDS011;66872;63.142;14.482;2023-07-24T03:46:33;1.00;;;1.00;;
16531;SDS011;66872;63.142;14.482;2023-07-24T03:48:59;1.00;;;1.00;;
16531;SDS011;66872;63.142;14.482;2023-07-24T03:51:24;0.80;;;0.80;;
16531;SDS011;66872;63.142;14.482;2023-07-24T03:53:50;0.93;;;0.93;;
16531;SDS011;66872;63.142;14.482;2023-07-24T03:56:16;0.83;;;0.83;;
16531;SDS011;66872;63.142;14.482;2023-07-24T03:58:41;0.90;;;0.90;;
16531;SDS011;66872;63.142;14.482;2023-07-24T04:01:07;1.00;;;1.00;;
16531;SDS011;66872;63.142;14.482;2023-07-24T04:03:33;0.90;;;0.90;;
16531;SDS011;66872;63.142;14.482;2023-07-24T04:05:59;1.20;;;1.00;;
16531;SDS011;66872;63.142;14.482;2023-07-24T04:08:25;0.90;;;0.90;;
16531;SDS011;66872;63.142;14.482;2023-07-24T04:10:51;0.80;;;0.80;;
16531;SDS011;66872;63.142;14.482;2023-07-24T04:13:17;0.83;;;0.83;;
16531;SDS011;66872;63.142;14.482;2023-07-24T04:15:42;0.80;;;0.80;;
16531;SDS011;66872;63.142;14.482;2023-07-24T04:18:09;1.27;;;0.80;;
16531;SDS011;66872;63.142;14.482;2023-07-24T04:20:35;1.10;;;1.03;;
16531;SDS011;66872;63.142;14.482;2023-07-24T04:23:01;0.97;;;0.97;;
16531;SDS011;66872;63.142;14.482;2023-07-24T04:25:26;1.17;;;1.10;;
16531;SDS011;66872;63.142;14.482;2023-07-24T04:27:52;0.90;;;0.90;;
16531;SDS011;66872;63.142;14.482;2023-07-24T04:30:18;0.93;;;0.93;;
16531;SDS011;66872;63.142;14.482;2023-07-24T04:32:44;1.13;;;1.07;;
16531;SDS011;66872;63.142;14.482;2023-07-24T04:35:11;1.00;;;0.90;;
16531;SDS011;66872;63.142;14.482;2023-07-24T04:37:37;1.20;;;1.10;;
16531;SDS011;66872;63.142;14.482;2023-07-24T04:40:03;0.87;;;0.87;;
16531;SDS011;66872;63.142;14.482;2023-07-24T04:42:29;1.23;;;1.13;;
16531;SDS011;66872;63.142;14.482;2023-07-24T04:44:55;1.00;;;1.00;;
16531;SDS011;66872;63.142;14.482;2023-07-24T04:47:20;0.97;;;0.97;;
16531;SDS011;66872;63.142;14.482;2023-07-24T04:49:46;1.50;;;1.00;;
16531;SDS011;66872;63.142;14.482;2023-07-24T04:52:12;1.00;;;1.00;;
16531;SDS011;66872;63.142;14.482;2023-07-24T04:54:37;0.90;;;0.90;;
16531;SDS011;66872;63.142;14.482;2023-07-24T04:57:03;1.00;;;1.00;;
16531;SDS011;66872;63.142;14.482;2023-07-24T04:59:29;1.00;;;1.00;;
16531;SDS011;66872;63.142;14.482;2023-07-24T05:01:55;1.20;;;1.10;;
16531;SDS011;66872;63.142;14.482;2023-07-24T05:04:21;1.47;;;0.90;;
16531;SDS011;66872;63.142;14.482;2023-07-24T05:06:46;0.90;;;0.90;;
16531;SDS011;66872;63.142;14.482;2023-07-24T05:09:12;0.90;;;0.90;;
16531;SDS011;66872;63.142;14.482;2023-07-24T05:11:39;0.93;;;0.93;;
16531;SDS011;66872;63.142;14.482;2023-07-24T05:14:05;0.80;;;0.80;;
16531;SDS011;66872;63.142;14.482;2023-07-24T05:16:30;1.50;;;1.07;;
16531;SDS011;66872;63.142;14.482;2023-07-24T05:18:56;1.10;;;1.00;;
16531;SDS011;66872;63.142;14.482;2023-07-24T05:21:22;1.00;;;1.00;;
16531;SDS011;66872;63.142;14.482;2023-07-24T05:23:47;0.93;;;0.93;;
16531;SDS011;66872;63.142;14.482;2023-07-24T05:26:13;0.93;;;0.93;;
16531;SDS011;66872;63.142;14.482;2023-07-24T05:28:39;1.20;;;1.10;;
16531;SDS011;66872;63.142;14.482;2023-07-24T05:31:05;1.07;;;1.07;;
16531;SDS011;66872;63.142;14.482;2023-07-24T05:33:31;1.77;;;1.00;;
16531;SDS011;66872;63.142;14.482;2023-07-24T05:36:00;0.93;;;0.90;;
16531;SDS011;66872;63.142;14.482;2023-07-24T05:38:27;1.30;;;1.20;;
16531;SDS011;66872;63.142;14.482;2023-07-24T05:40:56;1.03;;;0.93;;
16531;SDS011;66872;63.142;14.482;2023-07-24T05:43:22;1.10;;;1.00;;
16531;SDS011;66872;63.142;14.482;2023-07-24T05:45:49;1.13;;;1.00;;
16531;SDS011;66872;63.142;14.482;2023-07-24T05:48:17;0.97;;;0.97;;
16531;SDS011;66872;63.142;14.482;2023-07-24T05:50:43;1.13;;;1.10;;
16531;SDS011;66872;63.142;14.482;2023-07-24T05:53:09;1.20;;;1.10;;
16531;SDS011;66872;63.142;14.482;2023-07-24T05:55:35;0.93;;;0.93;;
16531;SDS011;66872;63.142;14.482;2023-07-24T05:58:00;1.20;;;1.10;;
16531;SDS011;66872;63.142;14.482;2023-07-24T06:00:26;0.90;;;0.90;;
16531;SDS011;66872;63.142;14.482;2023-07-24T06:02:52;1.10;;;1.00;;
16531;SDS011;66872;63.142;14.482;2023-07-24T06:05:19;1.00;;;1.00;;
16531;SDS011;66872;63.142;14.482;2023-07-24T06:07:45;1.07;;;1.07;;
16531;SDS011;66872;63.142;14.482;2023-07-24T06:10:11;1.10;;;1.10;;
16531;SDS011;66872;63.142;14.482;2023-07-24T06:12:37;1.20;;;1.10;;
16531;SDS011;66872;63.142;14.482;2023-07-24T06:15:03;1.03;;;1.03;;
16531;SDS011;66872;63.142;14.482;2023-07-24T06:17:29;1.27;;;1.17;;
16531;SDS011;66872;63.142;14.482;2023-07-24T06:19:55;1.23;;;1.13;;
16531;SDS011;66872;63.142;14.482;2023-07-24T06:22:20;1.20;;;1.10;;
16531;SDS011;66872;63.142;14.482;2023-07-24T06:24:46;1.20;;;1.10;;
16531;SDS011;66872;63.142;14.482;2023-07-24T06:27:12;1.10;;;1.10;;
16531;SDS011;66872;63.142;14.482;2023-07-24T06:29:37;0.90;;;0.90;;
16531;SDS011;66872;63.142;14.482;2023-07-24T06:32:03;1.10;;;1.10;;
16531;SDS011;66872;63.142;14.482;2023-07-24T06:34:29;1.00;;;1.00;;
16531;SDS011;66872;63.142;14.482;2023-07-24T06:36:55;1.43;;;1.10;;
16531;SDS011;66872;63.142;14.482;2023-07-24T06:39:21;1.10;;;1.03;;
16531;SDS011;66872;63.142;14.482;2023-07-24T06:41:46;1.13;;;1.03;;
16531;SDS011;66872;63.142;14.482;2023-07-24T06:44:12;1.07;;;1.07;;
16531;SDS011;66872;63.142;14.482;2023-07-24T06:46:38;0.93;;;0.93;;
16531;SDS011;66872;63.142;14.482;2023-07-24T06:49:03;1.10;;;1.00;;
16531;SDS011;66872;63.142;14.482;2023-07-24T06:51:29;1.10;;;1.10;;
16531;SDS011;66872;63.142;14.482;2023-07-24T06:53:55;1.30;;;1.20;;
16531;SDS011;66872;63.142;14.482;2023-07-24T06:56:20;1.17;;;1.10;;
16531;SDS011;66872;63.142;14.482;2023-07-24T06:58:46;1.20;;;1.10;;
16531;SDS011;66872;63.142;14.482;2023-07-24T07:01:12;1.30;;;1.20;;
16531;SDS011;66872;63.142;14.482;2023-07-24T07:03:37;1.00;;;1.00;;
16531;SDS011;66872;63.142;14.482;2023-07-24T07:06:03;1.10;;;1.10;;
16531;SDS011;66872;63.142;14.482;2023-07-24T07:08:32;0.90;;;0.90;;
16531;SDS011;66872;63.142;14.482;2023-07-24T07:10:58;1.00;;;1.00;;
16531;SDS011;66872;63.142;14.482;2023-07-24T07:13:24;1.17;;;1.10;;
16531;SDS011;66872;63.142;14.482;2023-07-24T07:15:50;1.10;;;1.10;;
16531;SDS011;66872;63.142;14.482;2023-07-24T07:18:16;1.20;;;1.10;;
16531;SDS011;66872;63.142;14.482;2023-07-24T07:20:45;1.17;;;1.07;;
16531;SDS011;66872;63.142;14.482;2023-07-24T07:23:11;1.10;;;1.10;;
16531;SDS011;66872;63.142;14.482;2023-07-24T07:25:37;1.20;;;1.10;;
16531;SDS011;66872;63.142;14.482;2023-07-24T07:28:03;0.93;;;0.93;;
16531;SDS011;66872;63.142;14.482;2023-07-24T07:30:29;1.10;;;1.10;;
16531;SDS011;66872;63.142;14.482;2023-07-24T07:32:54;1.10;;;1.10;;
16531;SDS011;66872;63.142;14.482;2023-07-24T07:35:20;1.40;;;1.30;;
16531;SDS011;66872;63.142;14.482;2023-07-24T07:37:46;1.20;;;1.13;;
16531;SDS011;66872;63.142;14.482;2023-07-24T07:40:11;1.20;;;1.10;;
16531;SDS011;66872;63.142;14.482;2023-07-24T07:42:37;1.15;;;1.05;;
16531;SDS011;66872;63.142;14.482;2023-07-24T07:45:03;1.25;;;1.15;;
16531;SDS011;66872;63.142;14.482;2023-07-24T07:47:29;1.48;;;1.15;;
16531;SDS011;66872;63.142;14.482;2023-07-24T07:49:55;1.08;;;1.08;;
16531;SDS011;66872;63.142;14.482;2023-07-24T07:52:21;1.15;;;1.10;;
16531;SDS011;66872;63.142;14.482;2023-07-24T07:54:50;1.30;;;1.20;;
16531;SDS011;66872;63.142;14.482;2023-07-24T07:57:16;0.98;;;0.98;;
16531;SDS011;66872;63.142;14.482;2023-07-24T07:59:41;1.00;;;1.00;;
16531;SDS011;66872;63.142;14.482;2023-07-24T08:02:07;1.05;;;1.05;;
16531;SDS011;66872;63.142;14.482;2023-07-24T08:04:33;1.10;;;1.10;;
16531;SDS011;66872;63.142;14.482;2023-07-24T08:06:59;1.17;;;1.08;;
16531;SDS011;66872;63.142;14.482;2023-07-24T08:09:25;1.10;;;1.08;;
16531;SDS011;66872;63.142;14.482;2023-07-24T08:11:51;1.27;;;1.20;;
16531;SDS011;66872;63.142;14.482;2023-07-24T08:14:17;1.10;;;1.00;;
16531;SDS011;66872;63.142;14.482;2023-07-24T08:16:43;1.30;;;1.20;;
16531;SDS011;66872;63.142;14.482;2023-07-24T08:19:08;1.10;;;1.10;;
16531;SDS011;66872;63.142;14.482;2023-07-24T08:21:34;0.90;;;0.90;;
16531;SDS011;66872;63.142;14.482;2023-07-24T08:24:00;1.20;;;1.10;;
16531;SDS011;66872;63.142;14.482;2023-07-24T08:26:27;1.20;;;1.10;;
16531;SDS011;66872;63.142;14.482;2023-07-24T08:28:53;1.27;;;1.20;;
16531;SDS011;66872;63.142;14.482;2023-07-24T08:31:19;1.27;;;1.17;;
16531;SDS011;66872;63.142;14.482;2023-07-24T08:33:45;1.00;;;1.00;;
16531;SDS011;66872;63.142;14.482;2023-07-24T08:36:10;0.90;;;0.90;;
16531;SDS011;66872;63.142;14.482;2023-07-24T08:38:39;1.25;;;1.15;;
16531;SDS011;66872;63.142;14.482;2023-07-24T08:43:33;1.20;;;1.10;;
16531;SDS011;66872;63.142;14.482;2023-07-24T08:46:00;1.10;;;1.10;;
16531;SDS011;66872;63.142;14.482;2023-07-24T08:48:27;1.20;;;1.10;;
16531;SDS011;66872;63.142;14.482;2023-07-24T08:50:56;1.08;;;1.08;;
16531;SDS011;66872;63.142;14.482;2023-07-24T08:53:22;1.13;;;1.10;;
16531;SDS011;66872;63.142;14.482;2023-07-24T08:55:49;1.00;;;0.98;;
16531;SDS011;66872;63.142;14.482;2023-07-24T08:58:16;1.30;;;1.20;;
16531;SDS011;66872;63.142;14.482;2023-07-24T09:00:42;1.20;;;1.10;;
16531;SDS011;66872;63.142;14.482;2023-07-24T09:03:07;1.17;;;1.10;;
16531;SDS011;66872;63.142;14.482;2023-07-24T09:05:33;1.38;;;1.27;;
16531;SDS011;66872;63.142;14.482;2023-07-24T09:07:59;1.25;;;1.15;;
16531;SDS011;66872;63.142;14.482;2023-07-24T09:10:25;1.17;;;1.13;;
16531;SDS011;66872;63.142;14.482;2023-07-24T09:12:51;1.30;;;1.20;;
16531;SDS011;66872;63.142;14.482;2023-07-24T09:15:17;1.15;;;1.10;;
16531;SDS011;66872;63.142;14.482;2023-07-24T09:17:49;1.02;;;1.02;;
16531;SDS011;66872;63.142;14.482;2023-07-24T09:20:16;1.30;;;1.20;;
16531;SDS011;66872;63.142;14.482;2023-07-24T09:22:52;1.40;;;1.30;;
16531;SDS011;66872;63.142;14.482;2023-07-24T09:25:29;1.25;;;1.15;;
16531;SDS011;66872;63.142;14.482;2023-07-24T09:27:56;1.20;;;1.10;;
16531;SDS011;66872;63.142;14.482;2023-07-24T09:30:25;1.10;;;1.10;;
16531;SDS011;66872;63.142;14.482;2023-07-24T09:32:52;1.13;;;1.05;;
16531;SDS011;66872;63.142;14.482;2023-07-24T09:35:18;1.30;;;1.20;;
16531;SDS011;66872;63.142;14.482;2023-07-24T09:37:44;1.20;;;1.10;;
16531;SDS011;66872;63.142;14.482;2023-07-24T09:40:11;1.10;;;1.02;;
16531;SDS011;66872;63.142;14.482;2023-07-24T09:42:39;1.27;;;1.17;;
16531;SDS011;66872;63.142;14.482;2023-07-24T09:45:07;1.17;;;1.08;;
16531;SDS011;66872;63.142;14.482;2023-07-24T09:47:34;1.10;;;1.10;;
16531;SDS011;66872;63.142;14.482;2023-07-24T09:50:02;1.20;;;1.10;;
16531;SDS011;66872;63.142;14.482;2023-07-24T09:52:29;1.25;;;1.15;;
16531;SDS011;66872;63.142;14.482;2023-07-24T09:57:28;0.93;;;0.93;;
16531;SDS011;66872;63.142;14.482;2023-07-24T09:59:54;1.30;;;1.20;;
16531;SDS011;66872;63.142;14.482;2023-07-24T10:02:22;1.20;;;1.10;;
16531;SDS011;66872;63.142;14.482;2023-07-24T10:04:49;1.17;;;1.10;;
16531;SDS011;66872;63.142;14.482;2023-07-24T10:07:15;1.45;;;1.30;;
16531;SDS011;66872;63.142;14.482;2023-07-24T10:09:42;1.15;;;1.05;;
16531;SDS011;66872;63.142;14.482;2023-07-24T10:12:08;1.20;;;1.10;;
16531;SDS011;66872;63.142;14.482;2023-07-24T10:14:35;1.40;;;1.30;;
16531;SDS011;66872;63.142;14.482;2023-07-24T10:17:02;1.10;;;1.10;;
16531;SDS011;66872;63.142;14.482;2023-07-24T10:19:41;1.25;;;1.15;;
16531;SDS011;66872;63.142;14.482;2023-07-24T10:22:16;1.00;;;1.00;;
16531;SDS011;66872;63.142;14.482;2023-07-24T10:24:46;1.00;;;1.00;;
16531;SDS011;66872;63.142;14.482;2023-07-24T10:27:12;1.40;;;1.30;;
16531;SDS011;66872;63.142;14.482;2023-07-24T10:29:38;1.40;;;1.30;;
16531;SDS011;66872;63.142;14.482;2023-07-24T10:32:25;1.20;;;1.10;;
16531;SDS011;66872;63.142;14.482;2023-07-24T10:35:00;1.20;;;1.10;;
16531;SDS011;66872;63.142;14.482;2023-07-24T10:37:37;1.20;;;1.10;;
16531;SDS011;66872;63.142;14.482;2023-07-24T10:40:06;1.40;;;1.30;;
16531;SDS011;66872;63.142;14.482;2023-07-24T10:42:43;1.10;;;1.10;;
16531;SDS011;66872;63.142;14.482;2023-07-24T10:45:09;1.23;;;1.13;;
16531;SDS011;66872;63.142;14.482;2023-07-24T10:47:35;1.25;;;1.15;;
16531;SDS011;66872;63.142;14.482;2023-07-24T10:50:01;1.10;;;1.10;;
16531;SDS011;66872;63.142;14.482;2023-07-24T10:52:30;1.33;;;1.10;;
16531;SDS011;66872;63.142;14.482;2023-07-24T10:55:00;1.30;;;1.20;;
16531;SDS011;66872;63.142;14.482;2023-07-24T10:57:27;1.52;;;1.42;;
16531;SDS011;66872;63.142;14.482;2023-07-24T10:59:54;1.70;;;1.40;;
16531;SDS011;66872;63.142;14.482;2023-07-24T11:02:19;1.70;;;1.20;;
16531;SDS011;66872;63.142;14.482;2023-07-24T11:04:45;1.33;;;1.23;;
16531;SDS011;66872;63.142;14.482;2023-07-24T11:07:11;2.22;;;1.20;;
16531;SDS011;66872;63.142;14.482;2023-07-24T11:09:38;1.30;;;1.20;;
16531;SDS011;66872;63.142;14.482;2023-07-24T11:12:09;1.43;;;1.30;;
16531;SDS011;66872;63.142;14.482;2023-07-24T11:14:45;1.30;;;1.20;;
16531;SDS011;66872;63.142;14.482;2023-07-24T11:17:14;1.43;;;1.33;;
16531;SDS011;66872;63.142;14.482;2023-07-24T11:19:40;1.40;;;1.30;;
16531;SDS011;66872;63.142;14.482;2023-07-24T11:22:06;1.40;;;1.30;;
16531;SDS011;66872;63.142;14.482;2023-07-24T11:24:32;1.50;;;1.40;;
16531;SDS011;66872;63.142;14.482;2023-07-24T11:26:57;2.30;;;1.27;;
16531;SDS011;66872;63.142;14.482;2023-07-24T11:29:23;2.90;;;1.50;;
16531;SDS011;66872;63.142;14.482;2023-07-24T11:31:55;1.80;;;1.37;;
16531;SDS011;66872;63.142;14.482;2023-07-24T11:34:22;1.40;;;1.30;;
16531;SDS011;66872;63.142;14.482;2023-07-24T11:36:48;2.10;;;1.20;;
16531;SDS011;66872;63.142;14.482;2023-07-24T11:39:21;1.40;;;1.30;;
16531;SDS011;66872;63.142;14.482;2023-07-24T11:41:49;1.40;;;1.30;;
16531;SDS011;66872;63.142;14.482;2023-07-24T11:44:15;1.30;;;1.20;;
16531;SDS011;66872;63.142;14.482;2023-07-24T11:46:42;1.30;;;1.20;;
16531;SDS011;66872;63.142;14.482;2023-07-24T11:49:14;1.30;;;1.20;;
16531;SDS011;66872;63.142;14.482;2023-07-24T11:51:39;1.60;;;1.50;;
16531;SDS011;66872;63.142;14.482;2023-07-24T11:54:07;1.87;;;1.27;;
16531;SDS011;66872;63.142;14.482;2023-07-24T11:56:34;1.40;;;1.30;;
16531;SDS011;66872;63.142;14.482;2023-07-24T11:59:10;1.30;;;1.20;;
16531;SDS011;66872;63.142;14.482;2023-07-24T12:01:39;1.30;;;1.20;;
16531;SDS011;66872;63.142;14.482;2023-07-24T12:04:05;1.40;;;1.30;;
16531;SDS011;66872;63.142;14.482;2023-07-24T12:06:31;1.40;;;1.30;;
16531;SDS011;66872;63.142;14.482;2023-07-24T12:09:03;1.40;;;1.30;;
16531;SDS011;66872;63.142;14.482;2023-07-24T12:11:30;1.67;;;1.30;;
16531;SDS011;66872;63.142;14.482;2023-07-24T12:13:56;2.00;;;1.40;;
16531;SDS011;66872;63.142;14.482;2023-07-24T12:16:22;1.33;;;1.23;;
16531;SDS011;66872;63.142;14.482;2023-07-24T12:18:48;1.33;;;1.23;;
16531;SDS011;66872;63.142;14.482;2023-07-24T12:21:14;1.40;;;1.30;;
16531;SDS011;66872;63.142;14.482;2023-07-24T12:23:39;1.17;;;1.07;;
16531;SDS011;66872;63.142;14.482;2023-07-24T12:26:05;1.53;;;1.40;;
16531;SDS011;66872;63.142;14.482;2023-07-24T12:28:30;1.50;;;1.40;;
16531;SDS011;66872;63.142;14.482;2023-07-24T12:30:56;1.50;;;1.40;;
16531;SDS011;66872;63.142;14.482;2023-07-24T12:33:22;1.53;;;1.30;;
16531;SDS011;66872;63.142;14.482;2023-07-24T12:35:51;1.50;;;1.40;;
16531;SDS011;66872;63.142;14.482;2023-07-24T12:38:18;1.40;;;1.30;;
16531;SDS011;66872;63.142;14.482;2023-07-24T12:40:44;1.30;;;1.20;;
16531;SDS011;66872;63.142;14.482;2023-07-24T12:43:09;4.63;;;1.50;;
16531;SDS011;66872;63.142;14.482;2023-07-24T12:45:35;3.97;;;1.30;;
16531;SDS011;66872;63.142;14.482;2023-07-24T12:48:01;1.87;;;1.27;;
16531;SDS011;66872;63.142;14.482;2023-07-24T12:50:26;1.97;;;1.50;;
16531;SDS011;66872;63.142;14.482;2023-07-24T12:52:52;6.77;;;1.60;;
16531;SDS011;66872;63.142;14.482;2023-07-24T12:55:18;1.67;;;1.47;;
16531;SDS011;66872;63.142;14.482;2023-07-24T12:57:43;2.57;;;1.40;;
16531;SDS011;66872;63.142;14.482;2023-07-24T13:00:09;3.60;;;1.50;;
16531;SDS011;66872;63.142;14.482;2023-07-24T13:02:35;3.10;;;1.40;;
16531;SDS011;66872;63.142;14.482;2023-07-24T13:05:01;2.80;;;1.70;;
16531;SDS011;66872;63.142;14.482;2023-07-24T13:07:27;2.50;;;1.50;;
16531;SDS011;66872;63.142;14.482;2023-07-24T13:09:54;2.27;;;1.47;;
16531;SDS011;66872;63.142;14.482;2023-07-24T13:12:20;2.30;;;1.50;;
16531;SDS011;66872;63.142;14.482;2023-07-24T13:14:45;1.57;;;1.30;;
16531;SDS011;66872;63.142;14.482;2023-07-24T13:17:11;2.23;;;1.40;;
16531;SDS011;66872;63.142;14.482;2023-07-24T13:19:37;2.23;;;1.53;;
16531;SDS011;66872;63.142;14.482;2023-07-24T13:22:03;1.50;;;1.40;;
16531;SDS011;66872;63.142;14.482;2023-07-24T13:24:29;1.50;;;1.30;;
16531;SDS011;66872;63.142;14.482;2023-07-24T13:26:55;2.33;;;1.30;;
16531;SDS011;66872;63.142;14.482;2023-07-24T13:29:20;3.40;;;1.60;;
16531;SDS011;66872;63.142;14.482;2023-07-24T13:31:46;4.47;;;1.70;;
16531;SDS011;66872;63.142;14.482;2023-07-24T13:34:11;2.20;;;1.50;;
16531;SDS011;66872;63.142;14.482;2023-07-24T13:36:37;1.30;;;1.20;;
16531;SDS011;66872;63.142;14.482;2023-07-24T13:39:03;1.63;;;1.53;;
16531;SDS011;66872;63.142;14.482;2023-07-24T13:41:28;3.03;;;1.40;;
16531;SDS011;66872;63.142;14.482;2023-07-24T13:43:54;4.20;;;1.83;;
16531;SDS011;66872;63.142;14.482;2023-07-24T13:46:20;2.05;;;1.40;;
16531;SDS011;66872;63.142;14.482;2023-07-24T13:48:46;3.07;;;1.63;;
16531;SDS011;66872;63.142;14.482;2023-07-24T13:51:11;2.50;;;1.50;;
16531;SDS011;66872;63.142;14.482;2023-07-24T13:53:37;2.50;;;1.73;;
16531;SDS011;66872;63.142;14.482;2023-07-24T13:56:02;1.95;;;1.65;;
16531;SDS011;66872;63.142;14.482;2023-07-24T13:58:28;2.27;;;1.60;;
16531;SDS011;66872;63.142;14.482;2023-07-24T14:00:54;1.70;;;1.30;;
16531;SDS011;66872;63.142;14.482;2023-07-24T14:03:19;4.33;;;1.27;;
16531;SDS011;66872;63.142;14.482;2023-07-24T14:05:45;1.50;;;1.40;;
16531;SDS011;66872;63.142;14.482;2023-07-24T14:08:11;2.35;;;1.58;;
16531;SDS011;66872;63.142;14.482;2023-07-24T14:10:37;3.40;;;1.50;;
16531;SDS011;66872;63.142;14.482;2023-07-24T14:13:03;3.70;;;1.40;;
16531;SDS011;66872;63.142;14.482;2023-07-24T14:15:29;2.83;;;1.30;;
16531;SDS011;66872;63.142;14.482;2023-07-24T14:17:55;1.90;;;1.40;;
16531;SDS011;66872;63.142;14.482;2023-07-24T14:20:20;1.70;;;1.60;;
16531;SDS011;66872;63.142;14.482;2023-07-24T14:22:46;1.67;;;1.33;;
16531;SDS011;66872;63.142;14.482;2023-07-24T14:25:11;3.43;;;1.50;;
16531;SDS011;66872;63.142;14.482;2023-07-24T14:27:37;2.95;;;1.60;;
16531;SDS011;66872;63.142;14.482;2023-07-24T14:30:03;1.40;;;1.30;;
16531;SDS011;66872;63.142;14.482;2023-07-24T14:32:29;4.47;;;1.30;;
16531;SDS011;66872;63.142;14.482;2023-07-24T14:34:55;3.13;;;1.20;;
16531;SDS011;66872;63.142;14.482;2023-07-24T14:37:21;1.48;;;1.38;;